IN-0031 weather

Vairengte Helipad
Mizoram, India

Public forecast

Using degrees Celsius for public forecast. Weather courtesy of forecast.io.

Closest aviation weather report (METAR) to Vairengte Helipad

Report is more than 2 hours old.

Closest report is Lengpui Airport, 39.0 nm (72.3 km) S. Retrieved 2020/06/02 12:00 UTC (3 hours ago):

VELP 021200Z 16007KT 5000 BR FEW018 SCT100 26/22 Q1007 NOSIG

Closest aviation forecast (TAF) to Vairengte Helipad

Closest forecast is Silchar Airport, 28.8 nm (53.3 km) NNE. Retrieved 2020/06/02 12:30 UTC (3 hours ago):

TAF VEKU 020930Z 0212/0224 09005KT 5000 BR FEA012 SCT018 SCT025 BKN080 TEMPO 0215/0218 4000 RABR TEMPO 0221/0224 3000 TSRA SCT010 FEW030TCU/CB